sensor_id;sensor_type;location;lat;lon;timestamp;temperature;humidity
8862;DHT22;4799;50.996;4.754;2022-08-02T00:01:26;19.20;99.90
8862;DHT22;4799;50.996;4.754;2022-08-02T00:03:52;19.20;99.90
8862;DHT22;4799;50.996;4.754;2022-08-02T00:06:18;19.10;99.90
8862;DHT22;4799;50.996;4.754;2022-08-02T00:08:44;19.10;99.90
8862;DHT22;4799;50.996;4.754;2022-08-02T00:11:09;19.10;99.90
8862;DHT22;4799;50.996;4.754;2022-08-02T00:13:35;19.00;99.90
8862;DHT22;4799;50.996;4.754;2022-08-02T00:16:01;19.00;99.90
8862;DHT22;4799;50.996;4.754;2022-08-02T00:18:27;19.00;99.90
8862;DHT22;4799;50.996;4.754;2022-08-02T00:20:53;18.90;99.90
8862;DHT22;4799;50.996;4.754;2022-08-02T00:23:19;18.90;99.90
8862;DHT22;4799;50.996;4.754;2022-08-02T00:25:45;18.90;99.90
8862;DHT22;4799;50.996;4.754;2022-08-02T00:28:11;18.90;99.90
8862;DHT22;4799;50.996;4.754;2022-08-02T00:30:37;18.90;99.90
8862;DHT22;4799;50.996;4.754;2022-08-02T00:33:03;18.90;99.90
8862;DHT22;4799;50.996;4.754;2022-08-02T00:35:31;18.90;99.90
8862;DHT22;4799;50.996;4.754;2022-08-02T00:37:56;18.90;99.90
8862;DHT22;4799;50.996;4.754;2022-08-02T00:40:23;18.80;99.90
8862;DHT22;4799;50.996;4.754;2022-08-02T00:43:03;18.80;99.90
8862;DHT22;4799;50.996;4.754;2022-08-02T00:45:32;18.80;99.90
8862;DHT22;4799;50.996;4.754;2022-08-02T00:47:58;18.80;99.90
8862;DHT22;4799;50.996;4.754;2022-08-02T00:50:25;18.80;99.90
8862;DHT22;4799;50.996;4.754;2022-08-02T00:52:51;18.70;99.90
8862;DHT22;4799;50.996;4.754;2022-08-02T00:55:16;18.70;99.90
8862;DHT22;4799;50.996;4.754;2022-08-02T00:57:42;18.70;99.90
8862;DHT22;4799;50.996;4.754;2022-08-02T01:00:08;18.70;99.90
8862;DHT22;4799;50.996;4.754;2022-08-02T01:02:34;18.70;99.90
8862;DHT22;4799;50.996;4.754;2022-08-02T01:05:00;18.70;99.90
8862;DHT22;4799;50.996;4.754;2022-08-02T01:07:26;18.70;99.90
8862;DHT22;4799;50.996;4.754;2022-08-02T01:09:52;18.60;99.90
8862;DHT22;4799;50.996;4.754;2022-08-02T01:12:18;18.60;99.90
8862;DHT22;4799;50.996;4.754;2022-08-02T01:14:47;18.60;99.90
8862;DHT22;4799;50.996;4.754;2022-08-02T01:31:57;18.50;99.90
8862;DHT22;4799;50.996;4.754;2022-08-02T01:39:54;18.50;99.90
8862;DHT22;4799;50.996;4.754;2022-08-02T01:42:21;18.50;99.90
8862;DHT22;4799;50.996;4.754;2022-08-02T01:44:50;18.50;99.90
8862;DHT22;4799;50.996;4.754;2022-08-02T01:47:21;18.50;99.90
8862;DHT22;4799;50.996;4.754;2022-08-02T01:49:50;18.40;99.90
8862;DHT22;4799;50.996;4.754;2022-08-02T01:52:18;18.40;99.90
8862;DHT22;4799;50.996;4.754;2022-08-02T01:54:53;18.30;99.90
8862;DHT22;4799;50.996;4.754;2022-08-02T01:57:22;18.30;99.90
8862;DHT22;4799;50.996;4.754;2022-08-02T01:59:49;18.30;99.90
8862;DHT22;4799;50.996;4.754;2022-08-02T02:02:17;18.20;99.90
8862;DHT22;4799;50.996;4.754;2022-08-02T02:04:44;18.20;99.90
8862;DHT22;4799;50.996;4.754;2022-08-02T02:07:12;18.20;99.90
8862;DHT22;4799;50.996;4.754;2022-08-02T02:09:40;18.10;99.90
8862;DHT22;4799;50.996;4.754;2022-08-02T02:12:08;18.10;99.90
8862;DHT22;4799;50.996;4.754;2022-08-02T02:14:37;18.10;99.90
8862;DHT22;4799;50.996;4.754;2022-08-02T02:17:04;18.00;99.90
8862;DHT22;4799;50.996;4.754;2022-08-02T02:19:32;18.00;99.90
8862;DHT22;4799;50.996;4.754;2022-08-02T02:22:00;18.00;99.90
8862;DHT22;4799;50.996;4.754;2022-08-02T02:24:26;18.00;99.90
8862;DHT22;4799;50.996;4.754;2022-08-02T02:26:52;18.00;99.90
8862;DHT22;4799;50.996;4.754;2022-08-02T02:29:20;17.90;99.90
8862;DHT22;4799;50.996;4.754;2022-08-02T02:31:51;17.90;99.90
8862;DHT22;4799;50.996;4.754;2022-08-02T02:34:38;17.90;99.90
8862;DHT22;4799;50.996;4.754;2022-08-02T02:37:12;17.80;99.90
8862;DHT22;4799;50.996;4.754;2022-08-02T02:39:39;17.80;99.90
8862;DHT22;4799;50.996;4.754;2022-08-02T02:42:08;17.70;99.90
8862;DHT22;4799;50.996;4.754;2022-08-02T02:44:35;17.70;99.90
8862;DHT22;4799;50.996;4.754;2022-08-02T02:47:03;17.70;99.90
8862;DHT22;4799;50.996;4.754;2022-08-02T02:49:31;17.70;99.90
8862;DHT22;4799;50.996;4.754;2022-08-02T02:52:01;17.60;99.90
8862;DHT22;4799;50.996;4.754;2022-08-02T02:54:28;17.60;99.90
8862;DHT22;4799;50.996;4.754;2022-08-02T02:56:55;17.60;99.90
8862;DHT22;4799;50.996;4.754;2022-08-02T02:59:22;17.60;99.90
8862;DHT22;4799;50.996;4.754;2022-08-02T03:01:49;17.50;99.90
8862;DHT22;4799;50.996;4.754;2022-08-02T03:04:16;17.50;99.90
8862;DHT22;4799;50.996;4.754;2022-08-02T03:06:42;17.50;99.90
8862;DHT22;4799;50.996;4.754;2022-08-02T03:09:08;17.50;99.90
8862;DHT22;4799;50.996;4.754;2022-08-02T03:11:35;17.40;99.90
8862;DHT22;4799;50.996;4.754;2022-08-02T03:14:02;17.40;99.90
8862;DHT22;4799;50.996;4.754;2022-08-02T03:16:28;17.40;99.90
8862;DHT22;4799;50.996;4.754;2022-08-02T03:18:56;17.40;99.90
8862;DHT22;4799;50.996;4.754;2022-08-02T03:21:23;17.30;99.90
8862;DHT22;4799;50.996;4.754;2022-08-02T03:23:49;17.30;99.90
8862;DHT22;4799;50.996;4.754;2022-08-02T03:26:15;17.30;99.90
8862;DHT22;4799;50.996;4.754;2022-08-02T03:28:41;17.30;99.90
8862;DHT22;4799;50.996;4.754;2022-08-02T03:31:08;17.30;99.90
8862;DHT22;4799;50.996;4.754;2022-08-02T03:33:34;17.30;99.90
8862;DHT22;4799;50.996;4.754;2022-08-02T03:36:20;17.30;99.90
8862;DHT22;4799;50.996;4.754;2022-08-02T03:38:47;17.20;99.90
8862;DHT22;4799;50.996;4.754;2022-08-02T03:41:16;17.20;99.90
8862;DHT22;4799;50.996;4.754;2022-08-02T03:43:44;17.20;99.90
8862;DHT22;4799;50.996;4.754;2022-08-02T03:46:12;17.20;99.90
8862;DHT22;4799;50.996;4.754;2022-08-02T03:48:39;17.20;99.90
8862;DHT22;4799;50.996;4.754;2022-08-02T03:51:06;17.20;99.90
8862;DHT22;4799;50.996;4.754;2022-08-02T03:53:33;17.20;99.90
8862;DHT22;4799;50.996;4.754;2022-08-02T03:55:59;17.20;99.90
8862;DHT22;4799;50.996;4.754;2022-08-02T03:58:25;17.20;99.90
8862;DHT22;4799;50.996;4.754;2022-08-02T04:00:53;17.30;99.90
8862;DHT22;4799;50.996;4.754;2022-08-02T04:03:19;17.30;99.90
8862;DHT22;4799;50.996;4.754;2022-08-02T04:05:45;17.30;99.90
8862;DHT22;4799;50.996;4.754;2022-08-02T04:08:11;17.30;99.90
8862;DHT22;4799;50.996;4.754;2022-08-02T04:10:37;17.30;99.90
8862;DHT22;4799;50.996;4.754;2022-08-02T04:13:29;17.30;99.90
8862;DHT22;4799;50.996;4.754;2022-08-02T04:15:58;17.30;99.90
8862;DHT22;4799;50.996;4.754;2022-08-02T04:18:35;17.30;99.90
8862;DHT22;4799;50.996;4.754;2022-08-02T04:21:03;17.30;99.90
8862;DHT22;4799;50.996;4.754;2022-08-02T04:23:30;17.30;99.90
8862;DHT22;4799;50.996;4.754;2022-08-02T04:26:01;17.30;99.90
8862;DHT22;4799;50.996;4.754;2022-08-02T04:28:28;17.30;99.90
8862;DHT22;4799;50.996;4.754;2022-08-02T04:30:55;17.40;99.90
8862;DHT22;4799;50.996;4.754;2022-08-02T04:33:22;17.50;99.90
8862;DHT22;4799;50.996;4.754;2022-08-02T04:35:50;17.50;99.90
8862;DHT22;4799;50.996;4.754;2022-08-02T04:38:16;17.60;99.90
8862;DHT22;4799;50.996;4.754;2022-08-02T04:40:53;17.60;99.90
8862;DHT22;4799;50.996;4.754;2022-08-02T04:43:19;17.60;99.90
8862;DHT22;4799;50.996;4.754;2022-08-02T04:45:47;17.70;99.90
8862;DHT22;4799;50.996;4.754;2022-08-02T04:48:14;17.80;99.90
8862;DHT22;4799;50.996;4.754;2022-08-02T04:50:39;17.80;99.90
8862;DHT22;4799;50.996;4.754;2022-08-02T04:53:05;17.80;99.90
8862;DHT22;4799;50.996;4.754;2022-08-02T04:55:31;17.90;99.90
8862;DHT22;4799;50.996;4.754;2022-08-02T04:57:57;17.90;99.90
8862;DHT22;4799;50.996;4.754;2022-08-02T05:00:26;17.90;99.90
8862;DHT22;4799;50.996;4.754;2022-08-02T05:02:52;18.00;99.90
8862;DHT22;4799;50.996;4.754;2022-08-02T05:05:19;18.10;99.90
8862;DHT22;4799;50.996;4.754;2022-08-02T05:07:45;18.20;99.90
8862;DHT22;4799;50.996;4.754;2022-08-02T05:10:11;18.20;99.90
8862;DHT22;4799;50.996;4.754;2022-08-02T05:12:37;18.30;99.90
8862;DHT22;4799;50.996;4.754;2022-08-02T05:15:07;18.40;99.90
8862;DHT22;4799;50.996;4.754;2022-08-02T05:17:33;18.40;99.90
8862;DHT22;4799;50.996;4.754;2022-08-02T05:19:59;18.40;99.90
8862;DHT22;4799;50.996;4.754;2022-08-02T05:22:25;18.50;99.90
8862;DHT22;4799;50.996;4.754;2022-08-02T05:24:50;18.60;99.90
8862;DHT22;4799;50.996;4.754;2022-08-02T05:27:16;18.70;99.90
8862;DHT22;4799;50.996;4.754;2022-08-02T05:29:42;18.80;99.90
8862;DHT22;4799;50.996;4.754;2022-08-02T05:32:09;18.90;99.90
8862;DHT22;4799;50.996;4.754;2022-08-02T05:34:34;19.00;99.90
8862;DHT22;4799;50.996;4.754;2022-08-02T05:37:00;19.10;99.90
8862;DHT22;4799;50.996;4.754;2022-08-02T05:39:26;19.10;99.90
8862;DHT22;4799;50.996;4.754;2022-08-02T05:41:51;19.20;99.90
8862;DHT22;4799;50.996;4.754;2022-08-02T05:44:17;19.30;99.90
8862;DHT22;4799;50.996;4.754;2022-08-02T05:46:46;19.30;99.90
8862;DHT22;4799;50.996;4.754;2022-08-02T05:49:11;19.30;99.90
8862;DHT22;4799;50.996;4.754;2022-08-02T05:51:42;19.40;99.90
8862;DHT22;4799;50.996;4.754;2022-08-02T05:54:22;19.40;99.90
8862;DHT22;4799;50.996;4.754;2022-08-02T05:57:04;19.50;99.90
8862;DHT22;4799;50.996;4.754;2022-08-02T06:00:08;19.60;99.90
8862;DHT22;4799;50.996;4.754;2022-08-02T06:05:18;19.60;99.90
8862;DHT22;4799;50.996;4.754;2022-08-02T06:07:46;19.60;99.90
8862;DHT22;4799;50.996;4.754;2022-08-02T06:10:14;19.70;99.90
8862;DHT22;4799;50.996;4.754;2022-08-02T06:15:20;19.90;99.90
8862;DHT22;4799;50.996;4.754;2022-08-02T06:17:46;19.90;99.90
8862;DHT22;4799;50.996;4.754;2022-08-02T06:20:13;20.00;99.90
8862;DHT22;4799;50.996;4.754;2022-08-02T06:22:41;20.00;99.90
8862;DHT22;4799;50.996;4.754;2022-08-02T06:25:09;20.10;99.90
8862;DHT22;4799;50.996;4.754;2022-08-02T06:27:36;20.20;99.90
8862;DHT22;4799;50.996;4.754;2022-08-02T06:30:04;20.20;99.90
8862;DHT22;4799;50.996;4.754;2022-08-02T06:32:32;20.30;99.90
8862;DHT22;4799;50.996;4.754;2022-08-02T06:35:02;20.40;99.90
8862;DHT22;4799;50.996;4.754;2022-08-02T06:37:47;20.40;99.90
8862;DHT22;4799;50.996;4.754;2022-08-02T06:40:26;20.50;99.90
8862;DHT22;4799;50.996;4.754;2022-08-02T06:45:38;20.70;99.90
8862;DHT22;4799;50.996;4.754;2022-08-02T06:48:05;20.80;99.90
8862;DHT22;4799;50.996;4.754;2022-08-02T06:50:31;20.90;99.90
8862;DHT22;4799;50.996;4.754;2022-08-02T06:52:57;21.00;99.90
8862;DHT22;4799;50.996;4.754;2022-08-02T06:55:22;21.10;99.90
8862;DHT22;4799;50.996;4.754;2022-08-02T06:57:48;21.20;99.90
8862;DHT22;4799;50.996;4.754;2022-08-02T07:00:14;21.30;99.90
8862;DHT22;4799;50.996;4.754;2022-08-02T07:02:40;21.40;99.90
8862;DHT22;4799;50.996;4.754;2022-08-02T07:05:07;21.50;99.90
8862;DHT22;4799;50.996;4.754;2022-08-02T07:07:33;21.60;99.90
8862;DHT22;4799;50.996;4.754;2022-08-02T07:09:59;21.70;99.90
8862;DHT22;4799;50.996;4.754;2022-08-02T07:12:25;21.80;99.90
8862;DHT22;4799;50.996;4.754;2022-08-02T07:14:54;21.90;99.90
8862;DHT22;4799;50.996;4.754;2022-08-02T07:17:20;21.90;99.90
8862;DHT22;4799;50.996;4.754;2022-08-02T07:19:45;21.90;99.90
8862;DHT22;4799;50.996;4.754;2022-08-02T07:22:11;22.00;99.90
8862;DHT22;4799;50.996;4.754;2022-08-02T07:24:37;22.10;99.90
8862;DHT22;4799;50.996;4.754;2022-08-02T07:27:04;22.10;99.90
8862;DHT22;4799;50.996;4.754;2022-08-02T07:29:30;22.10;99.90
8862;DHT22;4799;50.996;4.754;2022-08-02T07:31:56;22.20;99.90
8862;DHT22;4799;50.996;4.754;2022-08-02T07:34:21;22.20;99.90
8862;DHT22;4799;50.996;4.754;2022-08-02T07:36:47;22.20;99.90
8862;DHT22;4799;50.996;4.754;2022-08-02T07:39:13;22.30;99.90
8862;DHT22;4799;50.996;4.754;2022-08-02T07:41:39;22.30;99.90
8862;DHT22;4799;50.996;4.754;2022-08-02T07:44:04;22.40;99.90
8862;DHT22;4799;50.996;4.754;2022-08-02T07:46:30;22.40;99.90
8862;DHT22;4799;50.996;4.754;2022-08-02T07:48:58;22.50;99.90
8862;DHT22;4799;50.996;4.754;2022-08-02T07:51:23;22.50;99.90
8862;DHT22;4799;50.996;4.754;2022-08-02T07:53:49;22.50;99.90
8862;DHT22;4799;50.996;4.754;2022-08-02T07:56:15;22.60;99.90
8862;DHT22;4799;50.996;4.754;2022-08-02T07:58:41;22.60;99.90
8862;DHT22;4799;50.996;4.754;2022-08-02T08:01:07;22.70;99.90
8862;DHT22;4799;50.996;4.754;2022-08-02T08:03:33;22.80;99.80
8862;DHT22;4799;50.996;4.754;2022-08-02T08:06:00;22.80;99.50
8862;DHT22;4799;50.996;4.754;2022-08-02T08:08:25;23.00;99.40
8862;DHT22;4799;50.996;4.754;2022-08-02T08:10:52;23.10;98.70
8862;DHT22;4799;50.996;4.754;2022-08-02T08:13:18;23.10;98.10
8862;DHT22;4799;50.996;4.754;2022-08-02T08:15:43;23.10;97.80
8862;DHT22;4799;50.996;4.754;2022-08-02T08:18:09;23.20;97.40
8862;DHT22;4799;50.996;4.754;2022-08-02T08:20:36;23.30;97.60
8862;DHT22;4799;50.996;4.754;2022-08-02T08:23:03;23.40;96.60
8862;DHT22;4799;50.996;4.754;2022-08-02T08:25:28;23.40;96.70
8862;DHT22;4799;50.996;4.754;2022-08-02T08:27:54;23.50;96.20
8862;DHT22;4799;50.996;4.754;2022-08-02T08:30:21;23.60;95.90
8862;DHT22;4799;50.996;4.754;2022-08-02T08:32:47;23.60;95.10
8862;DHT22;4799;50.996;4.754;2022-08-02T08:35:14;23.70;94.40
8862;DHT22;4799;50.996;4.754;2022-08-02T08:37:40;23.80;94.30
8862;DHT22;4799;50.996;4.754;2022-08-02T08:40:07;23.90;94.60
8862;DHT22;4799;50.996;4.754;2022-08-02T08:42:35;23.90;93.80
8862;DHT22;4799;50.996;4.754;2022-08-02T08:45:02;24.00;93.70
8862;DHT22;4799;50.996;4.754;2022-08-02T08:47:37;24.10;93.10
8862;DHT22;4799;50.996;4.754;2022-08-02T08:52:43;24.20;92.20
8862;DHT22;4799;50.996;4.754;2022-08-02T08:55:13;24.30;91.90
8862;DHT22;4799;50.996;4.754;2022-08-02T08:57:42;24.40;91.80
8862;DHT22;4799;50.996;4.754;2022-08-02T09:00:12;24.40;91.70
8862;DHT22;4799;50.996;4.754;2022-08-02T09:02:40;24.60;91.70
8862;DHT22;4799;50.996;4.754;2022-08-02T09:05:12;24.70;91.40
8862;DHT22;4799;50.996;4.754;2022-08-02T09:07:38;24.80;91.40
8862;DHT22;4799;50.996;4.754;2022-08-02T09:10:41;24.90;91.10
8862;DHT22;4799;50.996;4.754;2022-08-02T09:16:01;25.10;90.80
8862;DHT22;4799;50.996;4.754;2022-08-02T09:18:32;25.30;90.80
8862;DHT22;4799;50.996;4.754;2022-08-02T09:21:01;25.40;90.40
8862;DHT22;4799;50.996;4.754;2022-08-02T09:23:39;25.50;90.40
8862;DHT22;4799;50.996;4.754;2022-08-02T09:26:06;25.60;90.60
8862;DHT22;4799;50.996;4.754;2022-08-02T09:28:35;25.70;90.40
8862;DHT22;4799;50.996;4.754;2022-08-02T09:31:18;25.80;90.50
8862;DHT22;4799;50.996;4.754;2022-08-02T09:33:53;25.80;90.00
8862;DHT22;4799;50.996;4.754;2022-08-02T09:36:20;25.80;90.00
8862;DHT22;4799;50.996;4.754;2022-08-02T09:38:57;25.80;90.20
8862;DHT22;4799;50.996;4.754;2022-08-02T09:41:26;25.80;90.30
8862;DHT22;4799;50.996;4.754;2022-08-02T09:43:53;25.90;90.30
8862;DHT22;4799;50.996;4.754;2022-08-02T09:46:27;25.90;90.30
8862;DHT22;4799;50.996;4.754;2022-08-02T09:49:04;26.00;90.20
8862;DHT22;4799;50.996;4.754;2022-08-02T09:51:39;26.10;90.00
8862;DHT22;4799;50.996;4.754;2022-08-02T09:54:09;26.30;89.60
8862;DHT22;4799;50.996;4.754;2022-08-02T09:56:47;26.30;89.30
8862;DHT22;4799;50.996;4.754;2022-08-02T09:59:14;26.40;89.20
8862;DHT22;4799;50.996;4.754;2022-08-02T10:01:41;26.50;88.20
8862;DHT22;4799;50.996;4.754;2022-08-02T10:04:09;26.50;87.20
8862;DHT22;4799;50.996;4.754;2022-08-02T10:06:37;26.60;87.00
8862;DHT22;4799;50.996;4.754;2022-08-02T10:09:05;26.70;85.50
8862;DHT22;4799;50.996;4.754;2022-08-02T10:11:31;26.70;84.60
8862;DHT22;4799;50.996;4.754;2022-08-02T10:13:57;26.80;84.90
8862;DHT22;4799;50.996;4.754;2022-08-02T10:16:23;26.80;84.10
8862;DHT22;4799;50.996;4.754;2022-08-02T10:18:54;26.80;83.90
8862;DHT22;4799;50.996;4.754;2022-08-02T10:24:14;27.20;83.30
8862;DHT22;4799;50.996;4.754;2022-08-02T10:26:43;27.30;81.20
8862;DHT22;4799;50.996;4.754;2022-08-02T10:29:10;27.40;79.80
8862;DHT22;4799;50.996;4.754;2022-08-02T10:31:52;27.60;79.00
8862;DHT22;4799;50.996;4.754;2022-08-02T10:34:23;27.80;77.10
8862;DHT22;4799;50.996;4.754;2022-08-02T10:36:52;27.90;76.20
8862;DHT22;4799;50.996;4.754;2022-08-02T10:39:18;28.20;74.40
8862;DHT22;4799;50.996;4.754;2022-08-02T10:41:49;28.40;72.90
8862;DHT22;4799;50.996;4.754;2022-08-02T10:44:30;28.60;72.70
8862;DHT22;4799;50.996;4.754;2022-08-02T10:47:18;28.60;69.30
8862;DHT22;4799;50.996;4.754;2022-08-02T10:49:52;28.70;68.00
8862;DHT22;4799;50.996;4.754;2022-08-02T10:52:23;28.70;66.30
8862;DHT22;4799;50.996;4.754;2022-08-02T10:57:28;28.90;62.60
8862;DHT22;4799;50.996;4.754;2022-08-02T11:02:45;29.10;61.70
8862;DHT22;4799;50.996;4.754;2022-08-02T11:05:16;29.30;60.80
8862;DHT22;4799;50.996;4.754;2022-08-02T11:07:48;29.60;61.10
8862;DHT22;4799;50.996;4.754;2022-08-02T11:10:40;29.80;59.00
8862;DHT22;4799;50.996;4.754;2022-08-02T11:13:12;29.90;56.80
8862;DHT22;4799;50.996;4.754;2022-08-02T11:15:52;29.90;57.50
8862;DHT22;4799;50.996;4.754;2022-08-02T11:18:19;30.00;56.80
8862;DHT22;4799;50.996;4.754;2022-08-02T11:20:46;30.10;57.20
8862;DHT22;4799;50.996;4.754;2022-08-02T11:23:37;30.20;56.60
8862;DHT22;4799;50.996;4.754;2022-08-02T11:26:41;30.20;55.40
8862;DHT22;4799;50.996;4.754;2022-08-02T11:29:07;30.20;54.80
8862;DHT22;4799;50.996;4.754;2022-08-02T11:31:43;30.20;55.80
8862;DHT22;4799;50.996;4.754;2022-08-02T11:34:09;30.20;56.10
8862;DHT22;4799;50.996;4.754;2022-08-02T11:36:48;30.20;55.90
8862;DHT22;4799;50.996;4.754;2022-08-02T11:39:16;30.10;56.10
8862;DHT22;4799;50.996;4.754;2022-08-02T11:41:51;30.00;54.70
8862;DHT22;4799;50.996;4.754;2022-08-02T11:44:17;29.90;55.40
8862;DHT22;4799;50.996;4.754;2022-08-02T11:46:43;29.80;55.90
8862;DHT22;4799;50.996;4.754;2022-08-02T11:49:16;29.80;56.60
8862;DHT22;4799;50.996;4.754;2022-08-02T11:51:56;29.70;56.30
8862;DHT22;4799;50.996;4.754;2022-08-02T11:54:43;29.60;56.30
8862;DHT22;4799;50.996;4.754;2022-08-02T11:57:20;29.60;56.80
8862;DHT22;4799;50.996;4.754;2022-08-02T11:59:52;29.60;56.80
8862;DHT22;4799;50.996;4.754;2022-08-02T12:02:20;29.60;56.80
8862;DHT22;4799;50.996;4.754;2022-08-02T12:04:57;29.50;56.70
8862;DHT22;4799;50.996;4.754;2022-08-02T12:07:27;29.40;55.60
8862;DHT22;4799;50.996;4.754;2022-08-02T12:09:59;29.40;55.70
8862;DHT22;4799;50.996;4.754;2022-08-02T12:12:26;29.30;55.20
8862;DHT22;4799;50.996;4.754;2022-08-02T12:14:52;29.30;54.20
8862;DHT22;4799;50.996;4.754;2022-08-02T12:17:25;29.30;54.20
8862;DHT22;4799;50.996;4.754;2022-08-02T12:20:11;29.40;54.70
8862;DHT22;4799;50.996;4.754;2022-08-02T12:22:37;29.50;54.70
8862;DHT22;4799;50.996;4.754;2022-08-02T12:25:19;29.60;53.70
8862;DHT22;4799;50.996;4.754;2022-08-02T12:27:46;29.60;53.00
8862;DHT22;4799;50.996;4.754;2022-08-02T12:30:16;29.80;53.30
8862;DHT22;4799;50.996;4.754;2022-08-02T12:32:44;29.90;53.00
8862;DHT22;4799;50.996;4.754;2022-08-02T12:35:15;30.00;53.20
8862;DHT22;4799;50.996;4.754;2022-08-02T12:37:46;30.00;53.90
8862;DHT22;4799;50.996;4.754;2022-08-02T12:42:55;30.00;52.20
8862;DHT22;4799;50.996;4.754;2022-08-02T12:45:21;30.10;52.40
8862;DHT22;4799;50.996;4.754;2022-08-02T12:47:50;30.20;52.50
8862;DHT22;4799;50.996;4.754;2022-08-02T12:50:23;30.20;52.00
8862;DHT22;4799;50.996;4.754;2022-08-02T12:52:50;30.20;52.30
8862;DHT22;4799;50.996;4.754;2022-08-02T12:55:26;30.20;52.20
8862;DHT22;4799;50.996;4.754;2022-08-02T13:00:28;30.10;51.80
8862;DHT22;4799;50.996;4.754;2022-08-02T13:02:54;30.20;52.30
8862;DHT22;4799;50.996;4.754;2022-08-02T13:05:20;30.30;52.80
8862;DHT22;4799;50.996;4.754;2022-08-02T13:07:46;30.30;52.40
8862;DHT22;4799;50.996;4.754;2022-08-02T13:10:11;30.40;52.00
8862;DHT22;4799;50.996;4.754;2022-08-02T13:12:37;30.50;52.40
8862;DHT22;4799;50.996;4.754;2022-08-02T13:15:05;30.60;52.50
8862;DHT22;4799;50.996;4.754;2022-08-02T13:17:31;30.60;51.90
8862;DHT22;4799;50.996;4.754;2022-08-02T13:19:57;30.50;51.90
8862;DHT22;4799;50.996;4.754;2022-08-02T13:22:22;30.60;52.40
8862;DHT22;4799;50.996;4.754;2022-08-02T13:24:48;30.70;52.60
8862;DHT22;4799;50.996;4.754;2022-08-02T13:27:16;30.70;52.70
8862;DHT22;4799;50.996;4.754;2022-08-02T13:29:42;30.70;52.20
8862;DHT22;4799;50.996;4.754;2022-08-02T13:32:08;30.50;52.50
8862;DHT22;4799;50.996;4.754;2022-08-02T13:34:34;30.40;53.10
8862;DHT22;4799;50.996;4.754;2022-08-02T13:37:00;30.40;53.50
8862;DHT22;4799;50.996;4.754;2022-08-02T13:39:26;30.50;53.60
8862;DHT22;4799;50.996;4.754;2022-08-02T13:41:52;30.50;53.60
8862;DHT22;4799;50.996;4.754;2022-08-02T13:44:18;30.50;53.70
8862;DHT22;4799;50.996;4.754;2022-08-02T13:46:43;30.70;53.70
8862;DHT22;4799;50.996;4.754;2022-08-02T13:49:09;30.70;53.90
8862;DHT22;4799;50.996;4.754;2022-08-02T13:51:35;30.70;54.00
8862;DHT22;4799;50.996;4.754;2022-08-02T13:54:00;30.70;53.90
8862;DHT22;4799;50.996;4.754;2022-08-02T13:56:26;30.80;53.90
8862;DHT22;4799;50.996;4.754;2022-08-02T13:58:52;30.80;54.00
8862;DHT22;4799;50.996;4.754;2022-08-02T14:01:18;30.90;53.60
8862;DHT22;4799;50.996;4.754;2022-08-02T14:03:43;31.00;53.60
8862;DHT22;4799;50.996;4.754;2022-08-02T14:06:10;31.00;53.80
8862;DHT22;4799;50.996;4.754;2022-08-02T14:08:36;30.80;53.70
8862;DHT22;4799;50.996;4.754;2022-08-02T14:11:03;30.70;54.10
8862;DHT22;4799;50.996;4.754;2022-08-02T14:13:28;30.80;54.40
8862;DHT22;4799;50.996;4.754;2022-08-02T14:15:54;30.80;54.40
8862;DHT22;4799;50.996;4.754;2022-08-02T14:18:21;30.90;54.50
8862;DHT22;4799;50.996;4.754;2022-08-02T14:20:47;31.00;54.70
8862;DHT22;4799;50.996;4.754;2022-08-02T14:23:12;31.00;54.70
8862;DHT22;4799;50.996;4.754;2022-08-02T14:25:38;31.00;54.90
8862;DHT22;4799;50.996;4.754;2022-08-02T14:28:04;31.00;55.00
8862;DHT22;4799;50.996;4.754;2022-08-02T14:30:30;31.10;55.30
8862;DHT22;4799;50.996;4.754;2022-08-02T14:32:56;31.20;55.20
8862;DHT22;4799;50.996;4.754;2022-08-02T14:35:22;31.20;55.30
8862;DHT22;4799;50.996;4.754;2022-08-02T14:37:48;31.20;54.90
8862;DHT22;4799;50.996;4.754;2022-08-02T14:40:13;31.20;54.90
8862;DHT22;4799;50.996;4.754;2022-08-02T14:42:39;31.20;55.00
8862;DHT22;4799;50.996;4.754;2022-08-02T14:45:05;31.30;55.40
8862;DHT22;4799;50.996;4.754;2022-08-02T14:47:31;31.30;55.30
8862;DHT22;4799;50.996;4.754;2022-08-02T14:49:57;31.40;55.10
8862;DHT22;4799;50.996;4.754;2022-08-02T14:52:23;31.40;55.10
8862;DHT22;4799;50.996;4.754;2022-08-02T14:54:48;31.40;55.00
8862;DHT22;4799;50.996;4.754;2022-08-02T14:57:15;31.50;55.10
8862;DHT22;4799;50.996;4.754;2022-08-02T14:59:41;31.50;54.90
8862;DHT22;4799;50.996;4.754;2022-08-02T15:02:07;31.60;54.70
8862;DHT22;4799;50.996;4.754;2022-08-02T15:04:32;31.60;54.70
8862;DHT22;4799;50.996;4.754;2022-08-02T15:06:59;31.70;54.60
8862;DHT22;4799;50.996;4.754;2022-08-02T15:09:26;31.80;54.70
8862;DHT22;4799;50.996;4.754;2022-08-02T15:11:52;31.90;54.70
8862;DHT22;4799;50.996;4.754;2022-08-02T15:14:20;31.90;54.30
8862;DHT22;4799;50.996;4.754;2022-08-02T15:16:46;31.90;54.10
8862;DHT22;4799;50.996;4.754;2022-08-02T15:19:12;31.90;54.10
8862;DHT22;4799;50.996;4.754;2022-08-02T15:21:39;31.90;53.90
8862;DHT22;4799;50.996;4.754;2022-08-02T15:24:04;31.90;53.70
8862;DHT22;4799;50.996;4.754;2022-08-02T15:26:30;32.00;53.80
8862;DHT22;4799;50.996;4.754;2022-08-02T15:28:59;32.00;54.00
8862;DHT22;4799;50.996;4.754;2022-08-02T15:31:24;32.10;54.00
8862;DHT22;4799;50.996;4.754;2022-08-02T15:33:50;32.20;53.90
8862;DHT22;4799;50.996;4.754;2022-08-02T15:36:16;32.20;53.90
8862;DHT22;4799;50.996;4.754;2022-08-02T15:38:42;32.20;53.70
8862;DHT22;4799;50.996;4.754;2022-08-02T15:41:07;32.20;53.70
8862;DHT22;4799;50.996;4.754;2022-08-02T15:43:36;32.30;53.90
8862;DHT22;4799;50.996;4.754;2022-08-02T15:46:02;32.40;53.80
8862;DHT22;4799;50.996;4.754;2022-08-02T15:48:28;32.40;53.70
8862;DHT22;4799;50.996;4.754;2022-08-02T15:50:54;32.40;53.70
8862;DHT22;4799;50.996;4.754;2022-08-02T15:53:20;32.50;53.70
8862;DHT22;4799;50.996;4.754;2022-08-02T15:55:46;32.50;53.70
8862;DHT22;4799;50.996;4.754;2022-08-02T15:58:12;32.40;53.70
8862;DHT22;4799;50.996;4.754;2022-08-02T16:00:38;32.50;53.70
8862;DHT22;4799;50.996;4.754;2022-08-02T16:03:04;32.60;53.30
8862;DHT22;4799;50.996;4.754;2022-08-02T16:05:30;32.50;53.60
8862;DHT22;4799;50.996;4.754;2022-08-02T16:07:56;32.60;54.10
8862;DHT22;4799;50.996;4.754;2022-08-02T16:10:22;32.70;53.50
8862;DHT22;4799;50.996;4.754;2022-08-02T16:12:48;32.70;53.30
8862;DHT22;4799;50.996;4.754;2022-08-02T16:15:13;32.60;53.70
8862;DHT22;4799;50.996;4.754;2022-08-02T16:17:39;32.60;53.70
8862;DHT22;4799;50.996;4.754;2022-08-02T16:20:05;32.50;53.80
8862;DHT22;4799;50.996;4.754;2022-08-02T16:22:31;32.60;54.10
8862;DHT22;4799;50.996;4.754;2022-08-02T16:24:57;32.70;53.70
8862;DHT22;4799;50.996;4.754;2022-08-02T16:27:26;33.00;53.20
8862;DHT22;4799;50.996;4.754;2022-08-02T16:29:52;33.40;52.50
8862;DHT22;4799;50.996;4.754;2022-08-02T16:32:18;33.70;52.30
8862;DHT22;4799;50.996;4.754;2022-08-02T16:34:44;33.80;51.10
8862;DHT22;4799;50.996;4.754;2022-08-02T16:37:10;34.00;50.80
8862;DHT22;4799;50.996;4.754;2022-08-02T16:39:36;34.30;50.40
8862;DHT22;4799;50.996;4.754;2022-08-02T16:42:03;34.50;50.00
8862;DHT22;4799;50.996;4.754;2022-08-02T16:44:29;34.80;49.70
8862;DHT22;4799;50.996;4.754;2022-08-02T16:46:55;35.00;49.20
8862;DHT22;4799;50.996;4.754;2022-08-02T16:49:21;35.30;49.10
8862;DHT22;4799;50.996;4.754;2022-08-02T16:51:46;35.40;48.60
8862;DHT22;4799;50.996;4.754;2022-08-02T16:54:12;35.60;48.50
8862;DHT22;4799;50.996;4.754;2022-08-02T16:56:38;36.00;48.30